CYXN

Whale Cove Airport

Whale Cove, Canada
METAR CYXN 191600Z 27019KT 3SM IC FEW050 SCT080 M31/M35 A3016 RMK SC2AC2 SLP218
Observed Flight Rules
Jan-19 @ 16:00 UTC (39 minutes ago) Marginal Visual Flight Rules
Wind Visibility Clouds Conditions
270° at 19 knots 3 miles
  • Few at 5,000' AGL
  • Scattered at 8,000' AGL
  • Ice crystals
Temperatures Readings
Current -31°C / -24°F
Dewpoint -35°C / -31°F
Humidity 68%
Altimeter 30.16" Hg
Pressure 1021.8 hPa
Elevation 20
METAR CYXN 191600Z 27019KT 3SM IC FEW050 SCT080 M31/M35 A3016 RMK SC2AC2 SLP218
Observed Flight Rules
Jan-19 @ 16:00 UTC
(39 minutes ago)
MVFR
Wind Visibility
270° at 19 knots 3 miles
Clouds
  • Few at 5,000' AGL
  • Scattered at 8,000' AGL
Conditions
  • Ice crystals
Temperature Dewpoint
-31°C / -24°F -35°C / -31°F
Humidity Altimeter Pressure
68% 30.16" Hg 1021.8 hPa